In Rescue
 
Open Full Screen Window  High Contrast Mode
Wind Gusting 19 knots
07
July 25, 2021 7:50 AM EDT
Present Weather: Drizzle
Weather Information
Wind Direction
  190 °
Wind Speed
  07 kt (8 mph)
Wind Gust
  19 kt (22 mph)
Variable Wind
150°
210°
Altimeter
29.75 in
Visibility
5 SM
Temperature
19° C
66° F
Dewpoint
19° C
66° F
Humidity
100%
Sky Condition
Overcast @ 3,900 ft
Broken @ 3,000 ft
Scattered @ 1,200 ft
MVFR

METAR KFSO 251150Z AUTO 19007G19KT 150V210 5SM DZ SCT012 BKN030 OVC039 19/19 A2975 RMK AO2 T01930187

FAA Disclaimer: The data displayed is for advisory purposes only and is not to be used for flight planning or operations.